createdAt,value
2022-12-20T00:00:11.168Z,96322.69
2022-12-20T00:02:39.714Z,96322.03
2022-12-20T00:05:08.723Z,96328.06
2022-12-20T00:07:37.040Z,96306.41
2022-12-20T00:10:08.354Z,96299.66
2022-12-20T00:12:37.004Z,96302.09
2022-12-20T00:15:05.946Z,96306.34
2022-12-20T00:17:34.269Z,96300.22
2022-12-20T00:20:02.543Z,96304.41
2022-12-20T00:22:30.926Z,96306.41
2022-12-20T00:24:59.230Z,96308.31
2022-12-20T00:27:29.937Z,96313.19
2022-12-20T00:29:58.266Z,96310.94
2022-12-20T00:32:26.591Z,96302.25
2022-12-20T00:34:54.936Z,96302.31
2022-12-20T00:37:23.279Z,96311.31
2022-12-20T00:39:51.582Z,96306.16
2022-12-20T00:42:20.177Z,96304.31
2022-12-20T00:44:49.943Z,96299.81
2022-12-20T00:47:18.292Z,96308.72
2022-12-20T00:49:46.795Z,96314.69
2022-12-20T00:52:15.270Z,96311.38
2022-12-20T00:54:43.864Z,96309.19
2022-12-20T00:57:12.321Z,96308.94
2022-12-20T00:59:40.597Z,96315.72
2022-12-20T01:02:10.597Z,96313.78
2022-12-20T01:04:39.150Z,96310.31
2022-12-20T01:07:07.932Z,96300.53
2022-12-20T01:09:36.290Z,96306.56
2022-12-20T01:12:05.307Z,96310.53
2022-12-20T01:14:33.721Z,96299.66
2022-12-20T01:17:02.116Z,96306.00
2022-12-20T01:19:32.220Z,96310.78
2022-12-20T01:22:00.516Z,96308.41
2022-12-20T01:24:28.770Z,96314.91
2022-12-20T01:26:57.148Z,96315.06
2022-12-20T01:29:25.461Z,96305.41
2022-12-20T01:31:54.979Z,96304.22
2022-12-20T01:34:23.637Z,96298.69
2022-12-20T01:36:53.335Z,96301.94
2022-12-20T01:39:21.681Z,96311.03
2022-12-20T01:41:50.235Z,96306.94
2022-12-20T01:44:54.691Z,96308.41
2022-12-20T01:47:23.295Z,96318.75
2022-12-20T01:49:52.147Z,96312.13
2022-12-20T01:52:23.108Z,96301.06
2022-12-20T01:54:52.819Z,96302.50
2022-12-20T01:57:23.938Z,96311.19
2022-12-20T01:59:52.239Z,96300.06
2022-12-20T02:02:22.946Z,96290.31
2022-12-20T02:04:51.402Z,96291.19
2022-12-20T02:07:22.960Z,96290.81
2022-12-20T02:09:51.303Z,96275.00
2022-12-20T02:12:21.566Z,96265.00
2022-12-20T02:14:58.947Z,96266.50
2022-12-20T02:17:31.935Z,96268.69
2022-12-20T02:20:22.163Z,96277.00
2022-12-20T02:23:04.236Z,96274.81
2022-12-20T02:25:48.144Z,96274.91
2022-12-20T02:28:25.726Z,96275.44
2022-12-20T02:30:55.685Z,96277.94
2022-12-20T02:33:24.457Z,96268.81
2022-12-20T02:35:52.926Z,96272.75
2022-12-20T02:38:29.796Z,96256.69
2022-12-20T02:41:00.549Z,96267.31
2022-12-20T02:43:46.283Z,96261.44
2022-12-20T02:46:16.126Z,96253.78
2022-12-20T02:48:44.521Z,96255.41
2022-12-20T02:51:12.832Z,96248.16
2022-12-20T02:53:42.980Z,96246.19
2022-12-20T02:56:15.976Z,96253.75
2022-12-20T02:58:47.294Z,96259.34
2022-12-20T03:01:19.170Z,96251.09
2022-12-20T03:03:47.805Z,96257.50
2022-12-20T03:06:16.442Z,96262.78
2022-12-20T03:08:44.922Z,96266.28
2022-12-20T03:11:13.407Z,96268.16
2022-12-20T03:13:41.764Z,96258.91
2022-12-20T03:16:11.935Z,96265.22
2022-12-20T03:18:41.875Z,96267.81
2022-12-20T03:21:10.484Z,96255.06
2022-12-20T03:23:38.899Z,96261.72
2022-12-20T03:26:08.140Z,96262.69
2022-12-20T03:28:41.856Z,96262.63
2022-12-20T03:31:12.936Z,96269.13
2022-12-20T03:33:49.058Z,96270.34
2022-12-20T03:36:23.563Z,96264.84
2022-12-20T03:38:56.393Z,96255.75
2022-12-20T03:41:27.592Z,96264.78
2022-12-20T03:43:55.890Z,96259.97
2022-12-20T03:46:25.019Z,96255.56
2022-12-20T03:48:56.734Z,96255.44
2022-12-20T03:51:25.563Z,96258.06
2022-12-20T03:53:53.914Z,96245.94
2022-12-20T03:56:25.147Z,96256.38
2022-12-20T03:58:53.519Z,96246.19
2022-12-20T04:01:23.009Z,96257.44
2022-12-20T04:03:52.681Z,96254.81
2022-12-20T04:06:22.788Z,96259.94
2022-12-20T04:08:52.287Z,96258.94
2022-12-20T04:11:27.947Z,96260.75
2022-12-20T04:14:13.441Z,96259.13
2022-12-20T04:16:41.968Z,96261.34
2022-12-20T04:19:12.103Z,96258.81
2022-12-20T04:21:48.114Z,96260.88
2022-12-20T04:24:18.023Z,96254.25
2022-12-20T04:27:01.760Z,96270.66
2022-12-20T04:29:30.883Z,96260.19
2022-12-20T04:32:00.349Z,96263.19
2022-12-20T04:34:29.596Z,96262.13
2022-12-20T04:37:00.223Z,96265.81
2022-12-20T04:39:48.803Z,96254.13
2022-12-20T04:42:22.691Z,96254.94
2022-12-20T04:44:52.668Z,96250.66
2022-12-20T04:47:25.730Z,96256.38
2022-12-20T04:49:55.478Z,96247.09
2022-12-20T04:52:47.448Z,96253.84
2022-12-20T04:55:16.759Z,96254.88
2022-12-20T04:57:45.435Z,96248.00
2022-12-20T05:00:15.940Z,96234.00
2022-12-20T05:02:48.174Z,96234.25
2022-12-20T05:05:20.366Z,96235.50
2022-12-20T05:07:54.187Z,96225.16
2022-12-20T05:10:22.829Z,96220.91
2022-12-20T05:12:52.654Z,96222.53
2022-12-20T05:15:32.331Z,96231.06
2022-12-20T05:18:01.244Z,96235.94
2022-12-20T05:20:39.564Z,96230.59
2022-12-20T05:23:42.783Z,96219.22
2022-12-20T05:26:18.886Z,96217.97
2022-12-20T05:28:49.517Z,96212.84
2022-12-20T05:31:18.096Z,96206.53
2022-12-20T05:33:46.454Z,96207.63
2022-12-20T05:36:14.923Z,96214.75
2022-12-20T05:38:45.805Z,96215.34
2022-12-20T05:41:17.890Z,96205.16
2022-12-20T05:43:50.168Z,96208.63
2022-12-20T05:46:18.906Z,96205.16
2022-12-20T05:48:55.631Z,96215.56
2022-12-20T05:51:24.692Z,96201.44
2022-12-20T05:54:02.563Z,96203.53
2022-12-20T05:56:43.326Z,96205.59
2022-12-20T05:59:11.733Z,96208.72
2022-12-20T06:01:41.721Z,96198.59
2022-12-20T06:04:10.148Z,96190.09
2022-12-20T06:06:38.888Z,96189.69
2022-12-20T06:09:08.617Z,96171.59
2022-12-20T06:11:41.476Z,96159.63
2022-12-20T06:14:13.137Z,96165.91
2022-12-20T06:16:46.890Z,96166.88
2022-12-20T06:19:21.693Z,96180.28
2022-12-20T06:21:53.090Z,96183.47
2022-12-20T06:24:29.872Z,96181.19
2022-12-20T06:26:58.398Z,96180.91
2022-12-20T06:29:28.062Z,96191.41
2022-12-20T06:32:05.381Z,96169.53
2022-12-20T06:34:34.195Z,96172.22
2022-12-20T06:37:03.482Z,96165.03
2022-12-20T06:39:36.486Z,96148.50
2022-12-20T06:42:07.058Z,96149.84
2022-12-20T06:44:37.014Z,96146.22
2022-12-20T06:47:06.684Z,96143.56
2022-12-20T06:49:35.021Z,96130.53
2022-12-20T06:52:08.724Z,96138.94
2022-12-20T06:54:46.502Z,96149.28
2022-12-20T06:57:14.995Z,96142.84
2022-12-20T06:59:46.082Z,96140.00
2022-12-20T07:02:14.590Z,96127.47
2022-12-20T07:04:43.161Z,96138.25
2022-12-20T07:07:12.735Z,96132.16
2022-12-20T07:09:42.831Z,96134.50
2022-12-20T07:12:12.975Z,96137.91
2022-12-20T07:14:41.259Z,96135.78
2022-12-20T07:17:09.654Z,96124.81
2022-12-20T07:19:37.965Z,96134.75
2022-12-20T07:22:06.689Z,96141.94
2022-12-20T07:24:35.032Z,96139.53
2022-12-20T07:27:03.643Z,96150.63
2022-12-20T07:29:33.310Z,96146.13
2022-12-20T07:32:01.712Z,96149.50
2022-12-20T07:34:29.993Z,96149.06
2022-12-20T07:36:58.991Z,96154.38
2022-12-20T07:39:27.376Z,96172.97
2022-12-20T07:41:58.144Z,96166.16
2022-12-20T07:44:26.637Z,96159.31
2022-12-20T07:46:56.352Z,96162.47
2022-12-20T07:49:24.647Z,96144.97
2022-12-20T07:51:54.161Z,96145.06
2022-12-20T07:54:25.197Z,96155.06
2022-12-20T07:56:54.758Z,96162.50
2022-12-20T07:59:24.602Z,96167.19
2022-12-20T08:01:53.166Z,96173.22
2022-12-20T08:04:27.297Z,96199.34
2022-12-20T08:06:56.436Z,96200.88
2022-12-20T08:09:25.058Z,96205.63
2022-12-20T08:11:53.380Z,96212.38
2022-12-20T08:14:21.862Z,96200.25
2022-12-20T08:16:50.919Z,96209.28
2022-12-20T08:19:19.252Z,96212.56
2022-12-20T08:21:49.317Z,96203.00
2022-12-20T08:24:17.604Z,96197.34
2022-12-20T08:26:45.962Z,96191.44
2022-12-20T08:29:14.298Z,96195.75
2022-12-20T08:31:49.442Z,96187.59
2022-12-20T08:34:20.162Z,96173.94
2022-12-20T08:36:49.891Z,96168.81
2022-12-20T08:39:18.263Z,96167.22
2022-12-20T08:41:46.562Z,96157.88
2022-12-20T08:44:14.849Z,96161.16
2022-12-20T08:46:43.271Z,96155.50
2022-12-20T08:49:11.857Z,96155.50
2022-12-20T08:51:40.226Z,96162.97
2022-12-20T08:54:10.006Z,96161.94
2022-12-20T08:56:38.312Z,96161.03
2022-12-20T08:59:06.963Z,96157.09
2022-12-20T09:01:36.882Z,96152.75
2022-12-20T09:04:05.828Z,96151.72
2022-12-20T09:06:36.121Z,96155.19
2022-12-20T09:09:04.494Z,96150.69
2022-12-20T09:11:34.272Z,96146.22
2022-12-20T09:14:02.911Z,96150.25
2022-12-20T09:16:32.111Z,96169.19
2022-12-20T09:19:05.614Z,96163.50
2022-12-20T09:21:34.575Z,96171.81
2022-12-20T09:24:02.916Z,96168.13
2022-12-20T09:26:32.467Z,96176.06
2022-12-20T09:29:02.701Z,96158.72
2022-12-20T09:31:31.093Z,96159.53
2022-12-20T09:33:59.827Z,96154.03
2022-12-20T09:36:29.045Z,96158.50
2022-12-20T09:38:57.649Z,96154.03
2022-12-20T09:41:29.136Z,96161.75
2022-12-20T09:43:58.741Z,96161.88
2022-12-20T09:46:28.539Z,96156.22
2022-12-20T09:48:57.588Z,96162.91
2022-12-20T09:51:44.235Z,96150.28
2022-12-20T09:54:18.632Z,96149.38
2022-12-20T09:56:51.225Z,96140.06
2022-12-20T09:59:20.185Z,96127.63
2022-12-20T10:01:51.064Z,96123.16
2022-12-20T10:04:22.170Z,96114.41
2022-12-20T10:06:56.835Z,96122.91
2022-12-20T10:09:37.196Z,96112.78
2022-12-20T10:12:09.344Z,96113.00
2022-12-20T10:14:49.087Z,96125.56
2022-12-20T10:17:26.190Z,96130.19
2022-12-20T10:20:05.294Z,96119.16
2022-12-20T10:22:37.853Z,96113.41
2022-12-20T10:25:15.448Z,96098.00
2022-12-20T10:27:43.802Z,96092.28
2022-12-20T10:30:14.707Z,96084.13
2022-12-20T10:32:45.997Z,96077.31
2022-12-20T10:35:23.058Z,96077.56
2022-12-20T10:38:14.290Z,96062.94
2022-12-20T10:41:19.453Z,96054.59
2022-12-20T10:43:42.003Z,96060.81
2022-12-20T10:46:10.449Z,96062.44
2022-12-20T10:48:41.259Z,96070.72
2022-12-20T10:51:16.930Z,96060.13
2022-12-20T10:53:53.162Z,96075.22
2022-12-20T10:56:22.740Z,96072.81
2022-12-20T10:58:58.185Z,96075.69
2022-12-20T11:01:29.241Z,96074.88
2022-12-20T11:04:03.422Z,96080.38
2022-12-20T11:06:43.575Z,96069.34
2022-12-20T11:09:25.038Z,96061.63
2022-12-20T11:11:59.628Z,96065.50
2022-12-20T11:14:32.899Z,96051.47
2022-12-20T11:17:07.910Z,96036.75
2022-12-20T11:19:47.826Z,96039.41
2022-12-20T11:22:23.511Z,96043.53
2022-12-20T11:24:56.521Z,96036.59
2022-12-20T11:27:28.850Z,96031.09
2022-12-20T11:30:16.240Z,96032.94
2022-12-20T11:32:55.858Z,96028.88
2022-12-20T11:35:26.768Z,96033.38
2022-12-20T11:38:09.920Z,96029.34
2022-12-20T11:40:39.406Z,96032.22
2022-12-20T11:43:28.411Z,96018.97
2022-12-20T11:46:07.089Z,96010.44
2022-12-20T11:48:44.929Z,96005.16
2022-12-20T11:51:25.891Z,96000.66
2022-12-20T11:53:56.988Z,95996.16
2022-12-20T11:56:27.520Z,95986.38
2022-12-20T11:58:57.639Z,95981.09
2022-12-20T12:01:27.345Z,95983.97
2022-12-20T12:04:04.289Z,95992.50
2022-12-20T12:06:35.239Z,95996.28
2022-12-20T12:09:09.839Z,95997.84
2022-12-20T12:12:06.051Z,95997.38
2022-12-20T12:14:37.028Z,95997.94
2022-12-20T12:17:09.711Z,96007.16
2022-12-20T12:19:38.582Z,95998.28
2022-12-20T12:22:12.181Z,95996.28
2022-12-20T12:24:42.759Z,95979.84
2022-12-20T12:27:16.132Z,95976.38
2022-12-20T12:29:45.361Z,95972.13
2022-12-20T12:32:18.023Z,95969.47
2022-12-20T12:34:53.496Z,95973.53
2022-12-20T12:37:38.422Z,95955.19
2022-12-20T12:40:34.968Z,95961.31
2022-12-20T12:43:12.909Z,95961.31
2022-12-20T12:45:43.651Z,95967.47
2022-12-20T12:48:15.522Z,95964.50
2022-12-20T12:50:45.691Z,95964.50
2022-12-20T12:53:16.243Z,95947.34
2022-12-20T12:55:45.600Z,95955.78
2022-12-20T12:58:34.934Z,95941.41
2022-12-20T13:01:05.573Z,95933.25
2022-12-20T13:03:56.280Z,95926.00
2022-12-20T13:07:04.103Z,95924.16
2022-12-20T13:09:49.276Z,95917.16
2022-12-20T13:13:00.020Z,95913.78
2022-12-20T13:15:53.601Z,95911.06
2022-12-20T13:18:30.947Z,95906.31
2022-12-20T13:21:36.709Z,95907.00
2022-12-20T13:24:38.189Z,95913.13
2022-12-20T13:27:39.314Z,95907.59
2022-12-20T13:30:27.022Z,95886.16
2022-12-20T13:33:13.744Z,95893.31
2022-12-20T13:36:02.135Z,95908.84
2022-12-20T13:38:39.932Z,95914.75
2022-12-20T13:41:14.240Z,95911.50
2022-12-20T13:43:46.258Z,95904.81
2022-12-20T13:46:15.688Z,95895.72
2022-12-20T13:48:48.182Z,95883.97
2022-12-20T13:51:17.663Z,95895.94
2022-12-20T13:53:52.710Z,95897.44
2022-12-20T13:56:44.185Z,95894.19
2022-12-20T13:59:19.751Z,95895.28
2022-12-20T14:01:51.856Z,95899.50
2022-12-20T14:04:20.723Z,95901.25
2022-12-20T14:06:52.836Z,95895.94
2022-12-20T14:09:29.168Z,95906.56
2022-12-20T14:12:03.477Z,95898.38
2022-12-20T14:14:38.753Z,95897.22
2022-12-20T14:17:17.934Z,95895.00
2022-12-20T14:19:46.371Z,95892.25
2022-12-20T14:22:14.757Z,95891.44
2022-12-20T14:24:43.382Z,95905.50
2022-12-20T14:27:12.409Z,95898.00
2022-12-20T14:29:47.562Z,95897.44
2022-12-20T14:32:19.936Z,95898.94
2022-12-20T14:34:48.707Z,95900.91
2022-12-20T14:37:28.672Z,95895.91
2022-12-20T14:40:02.905Z,95884.63
2022-12-20T14:42:33.849Z,95883.69
2022-12-20T14:45:18.891Z,95883.78
2022-12-20T14:47:58.367Z,95891.72
2022-12-20T14:50:32.096Z,95894.03
2022-12-20T14:53:00.391Z,95899.19
2022-12-20T14:55:33.245Z,95890.91
2022-12-20T14:58:01.892Z,95900.69
2022-12-20T15:00:32.264Z,95895.63
2022-12-20T15:03:03.342Z,95891.94
2022-12-20T15:05:52.045Z,95888.81
2022-12-20T15:08:22.184Z,95900.91
2022-12-20T15:10:53.440Z,95908.88
2022-12-20T15:13:22.843Z,95895.63
2022-12-20T15:15:52.633Z,95881.13
2022-12-20T15:18:21.622Z,95875.25
2022-12-20T15:20:51.730Z,95872.84
2022-12-20T15:23:21.156Z,95874.31
2022-12-20T15:25:49.948Z,95865.09
2022-12-20T15:28:19.449Z,95858.56
2022-12-20T15:30:47.881Z,95861.09
2022-12-20T15:33:22.503Z,95855.22
2022-12-20T15:35:51.506Z,95851.75
2022-12-20T15:38:34.794Z,95854.88
2022-12-20T15:41:12.887Z,95848.56
2022-12-20T15:43:41.152Z,95844.06
2022-12-20T15:46:10.022Z,95840.06
2022-12-20T15:48:39.758Z,95833.97
2022-12-20T15:51:15.925Z,95839.03
2022-12-20T15:53:44.287Z,95828.88
2022-12-20T15:56:19.831Z,95826.59
2022-12-20T15:58:48.715Z,95835.44
2022-12-20T16:01:19.493Z,95835.22
2022-12-20T16:03:49.235Z,95837.88
2022-12-20T16:06:17.495Z,95842.94
2022-12-20T16:08:45.809Z,95842.59
2022-12-20T16:11:23.341Z,95848.13
2022-12-20T16:13:51.771Z,95855.06
2022-12-20T16:16:20.467Z,95850.91
2022-12-20T16:18:50.268Z,95836.75
2022-12-20T16:21:18.843Z,95845.69
2022-12-20T16:23:47.140Z,95848.03
2022-12-20T16:26:17.306Z,95844.34
2022-12-20T16:28:45.660Z,95839.84
2022-12-20T16:31:19.823Z,95847.78
2022-12-20T16:33:49.628Z,95835.34
2022-12-20T16:36:18.011Z,95837.19
2022-12-20T16:38:50.343Z,95834.06
2022-12-20T16:41:19.279Z,95829.25
2022-12-20T16:43:47.856Z,95832.34
2022-12-20T16:46:16.964Z,95840.19
2022-12-20T16:48:45.373Z,95822.09
2022-12-20T16:51:23.942Z,95821.53
2022-12-20T16:54:18.087Z,95806.00
2022-12-20T16:56:40.915Z,95811.50
2022-12-20T16:59:19.370Z,95802.75
2022-12-20T17:01:49.674Z,95809.31
2022-12-20T17:04:18.900Z,95800.09
2022-12-20T17:06:49.937Z,95795.50
2022-12-20T17:12:04.683Z,95803.19
2022-12-20T17:14:32.916Z,95802.50
2022-12-20T17:17:03.940Z,95796.63
2022-12-20T17:19:33.003Z,95801.13
2022-12-20T17:24:48.526Z,95801.81
2022-12-20T17:27:16.848Z,95798.59
2022-12-20T17:29:45.172Z,95793.78
2022-12-20T17:32:20.180Z,95796.16
2022-12-20T17:34:48.532Z,95787.75
2022-12-20T17:37:18.410Z,95783.97
2022-12-20T17:39:46.812Z,95775.53
2022-12-20T17:42:15.456Z,95787.31
2022-12-20T17:44:43.790Z,95786.03
2022-12-20T17:47:12.634Z,95806.16
2022-12-20T17:49:40.918Z,95782.91
2022-12-20T17:52:13.096Z,95798.22
2022-12-20T17:54:42.816Z,95800.41
2022-12-20T17:57:14.451Z,95790.28
2022-12-20T17:59:43.652Z,95785.22
2022-12-20T18:02:20.313Z,95773.56
2022-12-20T18:04:48.963Z,95779.34
2022-12-20T18:07:17.292Z,95773.25
2022-12-20T18:09:49.119Z,95782.00
2022-12-20T18:12:17.783Z,95794.75
2022-12-20T18:14:46.171Z,95789.81
2022-12-20T18:17:14.580Z,95768.25
2022-12-20T18:19:43.966Z,95774.84
2022-12-20T18:22:12.380Z,95774.06
2022-12-20T18:24:40.661Z,95781.06
2022-12-20T18:27:10.717Z,95769.56
2022-12-20T18:29:38.991Z,95777.53
2022-12-20T18:32:07.506Z,95772.81
2022-12-20T18:34:35.996Z,95777.97
2022-12-20T18:37:05.751Z,95775.00
2022-12-20T18:39:35.534Z,95772.91
2022-12-20T18:42:03.876Z,95766.47
2022-12-20T18:44:36.018Z,95778.78
2022-12-20T18:47:04.603Z,95777.75
2022-12-20T18:49:33.256Z,95786.50
2022-12-20T18:52:01.586Z,95782.16
2022-12-20T18:54:31.058Z,95786.41
2022-12-20T18:57:00.888Z,95789.97
2022-12-20T18:59:29.435Z,95787.75
2022-12-20T19:01:59.657Z,95793.28
2022-12-20T19:04:28.125Z,95779.56
2022-12-20T19:06:56.491Z,95774.94
2022-12-20T19:09:24.982Z,95784.69
2022-12-20T19:11:57.000Z,95780.06
2022-12-20T19:14:25.929Z,95775.22
2022-12-20T19:16:54.296Z,95773.13
2022-12-20T19:19:24.116Z,95787.34
2022-12-20T19:21:52.683Z,95780.09
2022-12-20T19:24:21.436Z,95777.13
2022-12-20T19:26:49.801Z,95780.56
2022-12-20T19:29:18.122Z,95767.78
2022-12-20T19:31:47.815Z,95765.72
2022-12-20T19:34:16.386Z,95765.50
2022-12-20T19:36:48.585Z,95743.63
2022-12-20T19:39:17.799Z,95751.81
2022-12-20T19:42:00.224Z,95754.78
2022-12-20T19:44:34.551Z,95754.66
2022-12-20T19:47:05.917Z,95753.38
2022-12-20T19:49:35.614Z,95755.22
2022-12-20T19:52:05.962Z,95739.09
2022-12-20T19:54:35.220Z,95745.09
2022-12-20T19:57:03.499Z,95734.28
2022-12-20T19:59:31.851Z,95726.13
2022-12-20T20:02:00.356Z,95732.84
2022-12-20T20:04:29.138Z,95713.63
2022-12-20T20:06:57.641Z,95717.19
2022-12-20T20:09:27.427Z,95730.56
2022-12-20T20:11:55.712Z,95743.22
2022-12-20T20:14:24.056Z,95747.50
2022-12-20T20:16:52.999Z,95747.94
2022-12-20T20:19:21.768Z,95740.22
2022-12-20T20:21:50.481Z,95745.78
2022-12-20T20:24:18.924Z,95740.72
2022-12-20T20:26:48.818Z,95728.50
2022-12-20T20:29:17.082Z,95729.75
2022-12-20T20:31:45.784Z,95740.59
2022-12-20T20:34:14.095Z,95736.22
2022-12-20T20:36:42.472Z,95724.34
2022-12-20T20:39:10.829Z,95712.94
2022-12-20T20:41:39.147Z,95716.66
2022-12-20T20:44:09.194Z,95707.66
2022-12-20T20:46:37.556Z,95712.94
2022-12-20T20:49:05.963Z,95725.72
2022-12-20T20:51:34.800Z,95731.16
2022-12-20T20:54:03.481Z,95726.19
2022-12-20T20:56:31.956Z,95729.25
2022-12-20T20:59:05.937Z,95711.88
2022-12-20T21:01:38.083Z,95714.41
2022-12-20T21:04:07.046Z,95705.34
2022-12-20T21:06:41.166Z,95709.81
2022-12-20T21:09:10.258Z,95718.81
2022-12-20T21:11:38.958Z,95719.63
2022-12-20T21:14:07.354Z,95711.66
2022-12-20T21:16:37.265Z,95709.03
2022-12-20T21:19:05.814Z,95710.28
2022-12-20T21:21:34.181Z,95708.44
2022-12-20T21:24:03.945Z,95712.47
2022-12-20T21:26:32.285Z,95703.03
2022-12-20T21:29:01.109Z,95706.81
2022-12-20T21:31:29.651Z,95686.06
2022-12-20T21:33:59.981Z,95684.50
2022-12-20T21:36:28.368Z,95672.97
2022-12-20T21:38:57.835Z,95678.50
2022-12-20T21:41:26.981Z,95693.81
2022-12-20T21:43:56.366Z,95676.09
2022-12-20T21:46:24.843Z,95676.56
2022-12-20T21:48:53.205Z,95690.25
2022-12-20T21:51:23.447Z,95686.81
2022-12-20T21:53:52.510Z,95690.03
2022-12-20T21:56:21.122Z,95686.13
2022-12-20T21:58:49.502Z,95697.03
2022-12-20T22:01:18.630Z,95686.94
2022-12-20T22:03:47.038Z,95701.75
2022-12-20T22:06:15.558Z,95702.47
2022-12-20T22:08:45.354Z,95693.91
2022-12-20T22:11:14.621Z,95690.66
2022-12-20T22:13:43.000Z,95683.91
2022-12-20T22:16:12.158Z,95677.66
2022-12-20T22:18:40.539Z,95683.91
2022-12-20T22:21:11.040Z,95709.59
2022-12-20T22:23:39.421Z,95712.03
2022-12-20T22:26:10.598Z,95706.44
2022-12-20T22:28:39.054Z,95713.91
2022-12-20T22:31:09.185Z,95711.91
2022-12-20T22:33:37.667Z,95708.56
2022-12-20T22:36:06.896Z,95717.28
2022-12-20T22:38:35.378Z,95717.47
2022-12-20T22:41:11.977Z,95702.53
2022-12-20T22:43:41.081Z,95711.41
2022-12-20T22:46:10.616Z,95708.09
2022-12-20T22:48:39.383Z,95708.63
2022-12-20T22:51:09.386Z,95714.09
2022-12-20T22:53:37.753Z,95705.91
2022-12-20T22:56:06.690Z,95702.50
2022-12-20T22:58:36.622Z,95698.00
2022-12-20T23:01:06.247Z,95699.03
2022-12-20T23:03:34.757Z,95705.91
2022-12-20T23:06:03.944Z,95704.63
2022-12-20T23:08:33.452Z,95704.53
2022-12-20T23:11:19.273Z,95696.50
2022-12-20T23:14:06.681Z,95692.47
2022-12-20T23:16:35.011Z,95693.59
2022-12-20T23:19:03.370Z,95693.91
2022-12-20T23:21:49.392Z,95694.81
2022-12-20T23:24:17.749Z,95689.09
2022-12-20T23:26:46.072Z,95689.16
2022-12-20T23:29:16.133Z,95681.44
2022-12-20T23:31:44.585Z,95687.91
2022-12-20T23:34:12.929Z,95683.97
2022-12-20T23:36:41.317Z,95694.63
2022-12-20T23:39:09.639Z,95690.38
2022-12-20T23:41:37.958Z,95683.53
2022-12-20T23:44:06.937Z,95679.66
2022-12-20T23:46:36.598Z,95690.13
2022-12-20T23:49:04.927Z,95673.44
2022-12-20T23:51:34.703Z,95670.22
2022-12-20T23:54:03.054Z,95659.91
2022-12-20T23:56:31.652Z,95669.53
2022-12-20T23:58:59.963Z,95666.66
